Time;durP1;ratioP1;P1;durP2;ratioP2;P2;SDS_P1;SDS_P2;PMS_P1;PMS_P2;Temp;Humidity;BMP_temperature;BMP_pressure;BME280_temperature;BME280_humidity;BME280_pressure;Samples;Min_cycle;Max_cycle;Signal;HPM_P1;HPM_P2
2021/07/11 00:00:38;;;;;;;30.23;16.77;;;;;14.70;101135.00;;;;10422158;28;20210;-75
2021/07/11 00:05:40;;;;;;;27.10;17.27;;;;;14.80;101137.00;;;;10422337;28;20224;-76
2021/07/11 00:10:42;;;;;;;28.17;17.33;;;;;14.90;101131.00;;;;10405721;28;20229;-75
2021/07/11 00:15:44;;;;;;;28.77;18.57;;;;;15.00;101128.00;;;;10438828;28;20637;-75
2021/07/11 00:20:46;;;;;;;34.40;20.03;;;;;15.00;101111.00;;;;10438310;28;20209;-76
2021/07/11 00:25:48;;;;;;;33.23;20.10;;;;;15.00;101125.00;;;;10430841;28;20201;-75
2021/07/11 00:30:50;;;;;;;38.60;21.57;;;;;14.90;101117.00;;;;10421351;28;20194;-75
2021/07/11 00:35:52;;;;;;;34.30;21.93;;;;;14.90;101127.00;;;;10422731;28;20676;-75
2021/07/11 00:40:57;;;;;;;51.37;22.53;;;;;14.80;101113.00;;;;10446408;28;20585;-75
2021/07/11 00:46:03;;;;;;;40.60;25.00;;;;;14.80;101114.00;;;;10397711;28;20546;-75
2021/07/11 00:51:07;;;;;;;45.13;26.23;;;;;14.80;101118.00;;;;10430181;28;20261;-75
2021/07/11 00:56:13;;;;;;;53.40;27.13;;;;;14.70;101125.00;;;;10455111;28;20258;-75
2021/07/11 01:01:23;;;;;;;46.80;27.83;;;;;14.80;101123.00;;;;10445872;28;20202;-75
2021/07/11 01:06:34;;;;;;;51.57;25.73;;;;;14.70;101123.00;;;;10445291;28;20193;-75
2021/07/11 01:11:45;;;;;;;41.23;23.00;;;;;14.60;101112.00;;;;10428716;28;20201;-75
2021/07/11 01:16:50;;;;;;;36.80;22.77;;;;;14.50;101120.00;;;;10396330;28;20194;-75
2021/07/11 01:21:54;;;;;;;40.63;21.83;;;;;14.50;101114.00;;;;10445044;28;20201;-75
2021/07/11 01:27:08;;;;;;;35.33;19.80;;;;;14.40;101123.00;;;;10444176;28;20194;-75
2021/07/11 01:32:10;;;;;;;39.23;21.63;;;;;14.40;101134.00;;;;10445155;28;20210;-75
2021/07/11 01:37:14;;;;;;;36.50;20.07;;;;;14.30;101142.00;;;;10427771;28;20220;-76
2021/07/11 01:42:16;;;;;;;36.33;18.73;;;;;14.30;101143.00;;;;10443971;28;20194;-75
2021/07/11 01:47:20;;;;;;;30.97;18.73;;;;;14.20;101149.00;;;;10426744;28;20194;-76
2021/07/11 01:52:22;;;;;;;31.63;19.37;;;;;14.20;101137.00;;;;10429622;28;20190;-76
2021/07/11 01:57:24;;;;;;;32.60;18.47;;;;;14.10;101140.00;;;;10502777;28;20250;-76
2021/07/11 02:02:29;;;;;;;34.57;18.53;;;;;14.10;101151.00;;;;10502551;28;20196;-76
2021/07/11 02:07:44;;;;;;;31.50;17.63;;;;;14.00;101131.00;;;;10451586;28;20631;-76
2021/07/11 02:12:56;;;;;;;26.60;16.97;;;;;13.90;101130.00;;;;10467840;28;20197;-75
2021/07/11 02:18:01;;;;;;;29.07;17.00;;;;;13.70;101128.00;;;;10467392;28;20220;-76
2021/07/11 02:23:21;;;;;;;30.70;16.83;;;;;13.70;101131.00;;;;10443206;28;20277;-76
2021/07/11 02:28:24;;;;;;;26.97;17.73;;;;;13.70;101136.00;;;;10409628;28;20194;-76
2021/07/11 02:33:36;;;;;;;28.20;18.07;;;;;13.60;101133.00;;;;10425699;28;20573;-76
2021/07/11 02:38:44;;;;;;;22.90;15.93;;;;;13.50;101132.00;;;;10442469;28;20233;-76
2021/07/11 02:43:49;;;;;;;28.83;16.70;;;;;13.40;101129.00;;;;10441681;28;20198;-76
2021/07/11 02:48:53;;;;;;;28.40;16.57;;;;;13.40;101128.00;;;;10425380;28;20585;-76
2021/07/11 02:53:59;;;;;;;25.10;15.93;;;;;13.30;101122.00;;;;10456764;28;20280;-76
2021/07/11 02:59:03;;;;;;;28.17;15.93;;;;;13.20;101133.00;;;;10464993;28;20205;-76
2021/07/11 03:04:07;;;;;;;27.80;15.23;;;;;13.10;101125.00;;;;10449936;28;20281;-76
2021/07/11 03:09:10;;;;;;;24.17;14.87;;;;;13.00;101129.00;;;;10449298;28;20192;-76
2021/07/11 03:14:15;;;;;;;24.33;16.07;;;;;13.00;101137.00;;;;10457554;28;20192;-76
2021/07/11 03:19:25;;;;;;;22.90;16.07;;;;;13.00;101128.00;;;;10465050;28;20205;-76
2021/07/11 03:24:30;;;;;;;23.37;15.83;;;;;12.90;101124.00;;;;10445203;28;20289;-76
2021/07/11 03:29:39;;;;;;;25.53;16.60;;;;;12.80;101125.00;;;;10423784;28;20224;-76
2021/07/11 03:34:41;;;;;;;26.13;16.47;;;;;12.80;101124.00;;;;10423168;28;20214;-76
2021/07/11 03:39:50;;;;;;;26.80;17.17;;;;;12.80;101120.00;;;;10439331;28;20240;-76
2021/07/11 03:45:00;;;;;;;28.27;16.77;;;;;12.80;101112.00;;;;10423916;28;20883;-75
2021/07/11 03:50:05;;;;;;;28.33;17.57;;;;;12.70;101117.00;;;;10422934;28;20186;-76
2021/07/11 03:55:09;;;;;;;26.87;17.40;;;;;12.70;101120.00;;;;10448504;28;20552;-76
2021/07/11 04:00:12;;;;;;;26.93;16.00;;;;;12.70;101127.00;;;;10480413;28;20213;-76
2021/07/11 04:05:19;;;;;;;26.23;17.60;;;;;12.60;101146.00;;;;10463599;28;20753;-76
2021/07/11 04:10:27;;;;;;;25.50;17.00;;;;;12.60;101159.00;;;;10446256;28;20201;-76
2021/07/11 04:15:32;;;;;;;28.17;17.00;;;;;12.60;101155.00;;;;10446575;28;20185;-76
2021/07/11 04:20:35;;;;;;;28.37;16.33;;;;;12.60;101164.00;;;;10446526;28;20217;-76
2021/07/11 04:25:41;;;;;;;37.50;18.77;;;;;12.70;101158.00;;;;10421435;28;20225;-76
2021/07/11 04:30:43;;;;;;;33.00;19.17;;;;;12.80;101164.00;;;;10421706;28;20716;-76
2021/07/11 04:35:46;;;;;;;33.93;19.50;;;;;13.10;101163.00;;;;10421021;28;20222;-76
2021/07/11 04:40:48;;;;;;;36.60;21.00;;;;;13.30;101160.00;;;;10404751;28;20214;-76
2021/07/11 04:45:50;;;;;;;43.03;20.80;;;;;13.50;101150.00;;;;10421227;28;20194;-76
2021/07/11 04:50:52;;;;;;;38.70;20.17;;;;;13.70;101158.00;;;;10404642;28;20638;-76
2021/07/11 04:55:55;;;;;;;36.13;20.93;;;;;13.80;101156.00;;;;10410875;28;20689;-76
2021/07/11 05:00:56;;;;;;;40.60;22.97;;;;;14.10;101155.00;;;;10426864;28;20210;-76
2021/07/11 05:05:58;;;;;;;37.17;24.20;;;;;14.50;101163.00;;;;10445364;28;20200;-76
2021/07/11 05:11:01;;;;;;;47.43;23.93;;;;;14.80;101173.00;;;;10462068;28;20190;-76
2021/07/11 05:16:04;;;;;;;41.63;23.77;;;;;15.20;101164.00;;;;10461819;28;20205;-76
2021/07/11 05:21:06;;;;;;;38.03;22.10;;;;;15.40;101171.00;;;;10445280;28;20704;-76
2021/07/11 05:26:07;;;;;;;33.17;21.57;;;;;15.70;101168.00;;;;10504214;28;20223;-76
2021/07/11 05:31:10;;;;;;;34.43;20.57;;;;;16.00;101178.00;;;;10494452;28;20189;-76
2021/07/11 05:36:12;;;;;;;29.00;18.93;;;;;16.20;101167.00;;;;10490359;28;20225;-76
2021/07/11 05:41:14;;;;;;;30.07;18.93;;;;;16.50;101184.00;;;;10469115;28;20241;-76
2021/07/11 05:46:16;;;;;;;21.03;15.97;;;;;16.90;101204.00;;;;10452606;28;20222;-76
2021/07/11 05:51:18;;;;;;;16.83;13.52;;;;;17.10;101214.00;;;;10452192;28;20648;-76
2021/07/11 05:56:20;;;;;;;17.33;12.63;;;;;17.20;101230.00;;;;10444029;28;20206;-76
2021/07/11 06:01:22;;;;;;;20.42;14.82;;;;;17.70;101247.00;;;;10426620;28;20844;-76
2021/07/11 06:06:24;;;;;;;16.60;10.68;;;;;17.60;101253.00;;;;10462582;28;20193;-76
2021/07/11 06:11:27;;;;;;;12.88;11.30;;;;;18.40;101269.00;;;;10483272;28;20197;-76
2021/07/11 06:16:29;;;;;;;14.52;10.27;;;;;18.20;101279.00;;;;10415756;28;20209;-76
2021/07/11 06:21:32;;;;;;;15.55;10.15;;;;;18.60;101282.00;;;;10484262;28;20288;-76
2021/07/11 06:26:34;;;;;;;11.45;10.05;;;;;18.40;101275.00;;;;10442507;28;20214;-76
2021/07/11 06:31:36;;;;;;;11.55;9.63;;;;;18.30;101279.00;;;;10425814;28;20540;-76
2021/07/11 06:36:38;;;;;;;12.48;10.43;;;;;18.90;101272.00;;;;10475953;28;20232;-76
2021/07/11 06:41:39;;;;;;;16.13;11.40;;;;;19.00;101262.00;;;;10483080;28;20213;-76
2021/07/11 06:46:41;;;;;;;14.25;10.65;;;;;19.10;101260.00;;;;10434485;28;20260;-76
2021/07/11 06:51:43;;;;;;;12.02;9.75;;;;;20.00;101248.00;;;;10441786;28;20186;-76
2021/07/11 06:56:45;;;;;;;15.00;10.25;;;;;20.90;101227.00;;;;10441243;28;20206;-76
2021/07/11 07:01:47;;;;;;;9.50;6.82;;;;;20.30;101229.00;;;;10498353;28;20205;-76
2021/07/11 07:06:50;;;;;;;9.52;6.70;;;;;20.60;101226.00;;;;10424611;28;20220;-77
2021/07/11 07:11:52;;;;;;;9.30;7.03;;;;;20.40;101239.00;;;;10424617;28;20185;-76
2021/07/11 07:16:53;;;;;;;7.25;5.90;;;;;20.80;101233.00;;;;10458245;28;20186;-76
2021/07/11 07:21:55;;;;;;;9.95;6.63;;;;;21.10;101234.00;;;;10439587;28;20743;-76
2021/07/11 07:26:57;;;;;;;6.93;5.72;;;;;21.20;101237.00;;;;10412054;28;20205;-76
2021/07/11 07:31:59;;;;;;;9.40;6.50;;;;;20.70;101234.00;;;;10423213;28;20263;-76
2021/07/11 07:37:01;;;;;;;10.13;7.22;;;;;19.90;101239.00;;;;10439379;28;20190;-76
2021/07/11 07:42:03;;;;;;;11.63;6.93;;;;;20.00;101233.00;;;;10457060;28;20203;-76
2021/07/11 07:47:06;;;;;;;6.53;5.80;;;;;20.10;101224.00;;;;10456424;28;20256;-75
2021/07/11 07:52:08;;;;;;;7.00;6.30;;;;;20.80;101239.00;;;;10439809;28;20228;-76
2021/07/11 07:57:10;;;;;;;7.75;6.95;;;;;21.10;101233.00;;;;10479992;28;20216;-76
2021/07/11 08:02:13;;;;;;;7.72;6.97;;;;;20.30;101243.00;;;;10462645;28;20580;-76
2021/07/11 08:07:15;;;;;;;9.55;7.88;;;;;20.00;101244.00;;;;10456190;28;20190;-76
2021/07/11 08:12:17;;;;;;;9.20;8.02;;;;;19.90;101234.00;;;;10422145;28;20241;-76
2021/07/11 08:17:19;;;;;;;8.05;6.43;;;;;20.10;101241.00;;;;10462691;28;20247;-76
2021/07/11 08:22:21;;;;;;;8.35;6.75;;;;;20.40;101232.00;;;;10460916;28;20565;-76
2021/07/11 08:27:24;;;;;;;6.47;5.82;;;;;21.30;101237.00;;;;10421985;28;20190;-76
2021/07/11 08:32:25;;;;;;;6.45;5.50;;;;;22.10;101234.00;;;;10426366;28;20258;-76
2021/07/11 08:37:28;;;;;;;5.68;5.07;;;;;22.90;101233.00;;;;10463329;28;20194;-76
2021/07/11 08:42:30;;;;;;;4.43;4.03;;;;;25.00;101223.00;;;;10463233;28;20623;-77
2021/07/11 08:47:32;;;;;;;5.47;3.80;;;;;24.20;101225.00;;;;10462123;28;20225;-77
2021/07/11 08:52:35;;;;;;;4.45;3.55;;;;;23.30;101242.00;;;;10444455;28;20182;-77
2021/07/11 08:57:37;;;;;;;5.20;4.30;;;;;22.50;101244.00;;;;10445967;28;20190;-77
2021/07/11 09:02:39;;;;;;;6.15;5.57;;;;;22.00;101244.00;;;;10469018;28;20202;-77
2021/07/11 09:07:41;;;;;;;4.57;4.18;;;;;23.90;101224.00;;;;10432635;28;20208;-77
2021/07/11 09:12:53;;;;;;;2.97;2.72;;;;;25.70;101226.00;;;;10448651;28;20224;-77
2021/07/11 09:17:56;;;;;;;2.40;2.20;;;;;26.00;101233.00;;;;10450752;28;20202;-77
2021/07/11 09:23:03;;;;;;;3.60;3.30;;;;;25.80;101233.00;;;;10441331;28;20245;-77
2021/07/11 09:28:11;;;;;;;4.13;3.35;;;;;25.40;101228.00;;;;10501571;28;20233;-77
2021/07/11 09:33:17;;;;;;;3.95;3.65;;;;;25.20;101230.00;;;;10470798;28;20214;-77
2021/07/11 09:38:28;;;;;;;5.68;4.57;;;;;25.10;101232.00;;;;10435113;28;20288;-77
2021/07/11 09:43:38;;;;;;;5.20;4.70;;;;;24.60;101225.00;;;;10450220;28;20244;-77
2021/07/11 09:48:41;;;;;;;5.32;4.82;;;;;26.30;101217.00;;;;10431370;28;20186;-77
2021/07/11 09:53:44;;;;;;;4.47;4.05;;;;;27.10;101222.00;;;;10450311;28;20194;-76
2021/07/11 09:58:54;;;;;;;4.32;3.85;;;;;26.30;101221.00;;;;10472113;28;20207;-76
2021/07/11 10:03:58;;;;;;;5.05;4.45;;;;;25.20;101220.00;;;;10488561;28;20285;-77
2021/07/11 10:09:02;;;;;;;5.72;5.05;;;;;24.80;101214.00;;;;10471245;28;20189;-77
2021/07/11 10:14:04;;;;;;;6.20;5.60;;;;;25.00;101215.00;;;;10470199;28;20191;-77
2021/07/11 10:19:08;;;;;;;5.95;5.03;;;;;25.20;101207.00;;;;10470473;28;20292;-77
2021/07/11 10:24:19;;;;;;;4.90;4.22;;;;;25.30;101217.00;;;;10453529;28;20673;-77
2021/07/11 10:29:22;;;;;;;5.78;5.28;;;;;24.40;101200.00;;;;10463634;28;20186;-77
2021/07/11 10:34:31;;;;;;;5.57;4.07;;;;;24.50;101213.00;;;;10459985;28;20275;-77
2021/07/11 10:39:34;;;;;;;4.63;4.22;;;;;24.90;101202.00;;;;10429529;28;20218;-77
2021/07/11 10:44:39;;;;;;;4.90;3.65;;;;;24.70;101203.00;;;;10430352;28;20198;-76
2021/07/11 10:49:51;;;;;;;5.10;3.45;;;;;26.00;101192.00;;;;10432637;28;20198;-77
2021/07/11 10:54:59;;;;;;;4.43;3.53;;;;;27.20;101194.00;;;;10456727;28;20201;-77
2021/07/11 11:00:07;;;;;;;3.55;3.25;;;;;27.80;101194.00;;;;10439116;28;20217;-77
2021/07/11 11:05:20;;;;;;;4.45;3.85;;;;;28.00;101190.00;;;;10439460;28;20190;-78
2021/07/11 11:10:33;;;;;;;4.70;2.88;;;;;27.70;101193.00;;;;10459014;28;20276;-78
2021/07/11 11:15:42;;;;;;;4.28;3.78;;;;;28.60;101181.00;;;;10479185;28;20193;-78
2021/07/11 11:20:51;;;;;;;2.80;2.60;;;;;29.00;101189.00;;;;10496194;28;20189;-78
2021/07/11 11:25:53;;;;;;;2.40;2.20;;;;;28.40;101188.00;;;;10478319;28;20215;-77
2021/07/11 11:31:08;;;;;;;2.60;1.83;;;;;27.60;101200.00;;;;10477469;28;20201;-77
2021/07/11 11:36:10;;;;;;;3.95;2.00;;;;;26.70;101199.00;;;;10488829;28;20248;-78
2021/07/11 11:41:14;;;;;;;2.35;1.88;;;;;26.20;101200.00;;;;10493173;28;20224;-77
2021/07/11 11:46:28;;;;;;;2.42;2.22;;;;;25.30;101203.00;;;;10499762;28;20200;-77
2021/07/11 11:51:32;;;;;;;2.25;2.03;;;;;25.90;101200.00;;;;10499557;28;20648;-77
2021/07/11 11:56:41;;;;;;;1.98;1.75;;;;;26.70;101195.00;;;;10500769;28;20209;-77
2021/07/11 12:01:43;;;;;;;1.60;1.20;;;;;26.80;101197.00;;;;10518326;28;20212;-78
2021/07/11 12:06:51;;;;;;;1.70;1.60;;;;;26.80;101197.00;;;;10534678;28;20248;-78
2021/07/11 12:12:03;;;;;;;1.38;1.20;;;;;26.90;101200.00;;;;10533954;28;20234;-77
2021/07/11 12:17:09;;;;;;;1.13;1.00;;;;;27.20;101196.00;;;;10500152;28;20248;-78
2021/07/11 12:22:18;;;;;;;1.58;0.98;;;;;27.20;101184.00;;;;10516165;28;20659;-78
2021/07/11 12:27:21;;;;;;;1.50;1.33;;;;;28.40;101188.00;;;;10475322;28;20644;-78
2021/07/11 12:32:22;;;;;;;1.85;1.00;;;;;28.30;101180.00;;;;10509421;28;20215;-78
2021/07/11 12:37:24;;;;;;;1.50;1.40;;;;;28.70;101178.00;;;;10493039;28;20190;-78
2021/07/11 12:42:28;;;;;;;1.25;1.15;;;;;28.90;101178.00;;;;10493533;28;20289;-78
2021/07/11 12:47:30;;;;;;;1.30;1.20;;;;;29.10;101165.00;;;;10494568;28;20813;-78
2021/07/11 12:52:33;;;;;;;1.30;1.20;;;;;28.20;101163.00;;;;10514577;28;20192;-78
2021/07/11 12:57:35;;;;;;;1.42;1.33;;;;;28.80;101157.00;;;;10462768;28;20690;-78
2021/07/11 13:02:38;;;;;;;1.52;1.42;;;;;28.50;101160.00;;;;10515845;28;20215;-77
2021/07/11 13:07:40;;;;;;;2.97;1.70;;;;;29.10;101159.00;;;;10499270;28;20193;-78
2021/07/11 13:12:42;;;;;;;2.20;1.50;;;;;30.20;101147.00;;;;10534694;28;20189;-78
2021/07/11 13:17:44;;;;;;;2.00;1.80;;;;;29.60;101143.00;;;;10518159;28;20200;-78
2021/07/11 13:22:46;;;;;;;4.20;1.60;;;;;28.30;101140.00;;;;10546225;28;20209;-78
2021/07/11 13:27:48;;;;;;;1.98;1.13;;;;;27.60;101139.00;;;;10523613;28;20189;-77
2021/07/11 13:32:52;;;;;;;1.50;1.40;;;;;26.70;101138.00;;;;10525773;28;20211;-77
2021/07/11 13:37:54;;;;;;;1.55;1.45;;;;;25.40;101144.00;;;;10514240;28;20185;-77
2021/07/11 13:42:56;;;;;;;3.45;1.50;;;;;24.60;101133.00;;;;10528848;28;20254;-77
2021/07/11 13:47:58;;;;;;;2.10;1.85;;;;;24.90;101140.00;;;;10504032;28;20574;-77
2021/07/11 13:52:59;;;;;;;3.05;1.52;;;;;25.20;101129.00;;;;10553613;28;20189;-77
2021/07/11 13:58:03;;;;;;;3.15;1.35;;;;;24.80;101128.00;;;;10502772;28;20185;-77
2021/07/11 14:03:05;;;;;;;1.90;1.45;;;;;23.90;101133.00;;;;10476627;28;20209;-77
2021/07/11 14:08:07;;;;;;;5.13;2.00;;;;;23.10;101137.00;;;;10491022;28;20247;-76
2021/07/11 14:13:08;;;;;;;4.43;1.70;;;;;22.40;101140.00;;;;10472894;28;20587;-77
2021/07/11 14:18:10;;;;;;;4.63;1.83;;;;;22.00;101141.00;;;;10457021;28;20194;-76
2021/07/11 14:23:12;;;;;;;3.50;1.75;;;;;21.80;101132.00;;;;10498136;28;20270;-77
2021/07/11 14:28:14;;;;;;;2.42;1.90;;;;;21.80;101130.00;;;;10529616;28;20189;-77
2021/07/11 14:33:16;;;;;;;2.28;2.08;;;;;22.20;101125.00;;;;10511687;28;20217;-77
2021/07/11 14:38:18;;;;;;;1.70;1.60;;;;;22.60;101129.00;;;;10513200;28;20246;-77
2021/07/11 14:43:20;;;;;;;5.75;3.28;;;;;22.90;101116.00;;;;10512715;28;20217;-77
2021/07/11 14:48:22;;;;;;;3.58;1.70;;;;;23.30;101106.00;;;;10547437;28;20231;-77
2021/07/11 14:53:24;;;;;;;2.33;1.65;;;;;23.80;101087.00;;;;10497796;28;20192;-77
2021/07/11 14:58:26;;;;;;;1.80;1.50;;;;;23.70;101081.00;;;;10529442;28;20192;-77
2021/07/11 15:03:28;;;;;;;1.63;1.52;;;;;24.00;101081.00;;;;10514403;28;20216;-77
2021/07/11 15:08:31;;;;;;;2.28;1.80;;;;;24.50;101082.00;;;;10514023;28;20238;-77
2021/07/11 15:13:33;;;;;;;1.83;1.52;;;;;25.30;101074.00;;;;10550644;28;20192;-77
2021/07/11 15:18:36;;;;;;;2.47;1.90;;;;;30.30;101048.00;;;;10486219;28;20232;-77
2021/07/11 15:23:38;;;;;;;2.78;1.60;;;;;29.90;101062.00;;;;10507200;28;20209;-78
2021/07/11 15:28:42;;;;;;;3.63;1.63;;;;;27.50;101067.00;;;;10458451;28;20190;-77
2021/07/11 15:33:44;;;;;;;2.75;1.70;;;;;26.10;101066.00;;;;10526089;28;20231;-77
2021/07/11 15:38:46;;;;;;;3.42;1.55;;;;;26.10;101048.00;;;;10483046;28;20196;-77
2021/07/11 15:43:48;;;;;;;1.50;1.40;;;;;26.80;101043.00;;;;10515339;28;20618;-77
2021/07/11 15:48:51;;;;;;;3.03;1.60;;;;;28.10;101040.00;;;;10499076;28;20208;-77
2021/07/11 15:53:53;;;;;;;1.58;1.40;;;;;31.10;101038.00;;;;10483706;28;20220;-77
2021/07/11 15:59:15;;;;;;;1.70;1.25;;;;;29.10;101041.00;;;;10505329;28;20198;-78
2021/07/11 16:04:18;;;;;;;2.88;2.42;;;;;27.80;101042.00;;;;10512087;28;20250;-77
2021/07/11 16:09:19;;;;;;;1.40;1.30;;;;;26.60;101031.00;;;;10498953;28;20185;-77
2021/07/11 16:14:22;;;;;;;1.52;1.30;;;;;25.60;101024.00;;;;10532649;28;20196;-77
2021/07/11 16:19:24;;;;;;;1.60;1.15;;;;;25.10;101022.00;;;;10498145;28;20236;-77
2021/07/11 16:24:27;;;;;;;1.52;1.15;;;;;24.90;101018.00;;;;10530995;28;20197;-77
2021/07/11 16:29:30;;;;;;;1.60;1.48;;;;;24.70;101014.00;;;;10530971;28;20181;-77
2021/07/11 16:34:32;;;;;;;1.70;1.35;;;;;25.00;101009.00;;;;10482951;28;20213;-77
2021/07/11 16:39:34;;;;;;;2.03;1.60;;;;;25.00;101015.00;;;;10472889;28;20198;-77
2021/07/11 16:44:35;;;;;;;3.58;1.52;;;;;24.80;101013.00;;;;10508214;28;20246;-77
2021/07/11 16:49:37;;;;;;;1.92;1.20;;;;;24.60;101010.00;;;;10531383;28;20242;-77
2021/07/11 16:54:40;;;;;;;1.45;1.35;;;;;24.60;101007.00;;;;10512061;28;20200;-77
2021/07/11 16:59:42;;;;;;;1.58;1.48;;;;;24.60;100996.00;;;;10472612;28;20330;-77
2021/07/11 17:04:44;;;;;;;1.30;1.20;;;;;24.50;100997.00;;;;10506346;28;20194;-77
2021/07/11 17:09:46;;;;;;;2.25;1.40;;;;;24.40;100999.00;;;;10455302;28;20193;-77
2021/07/11 17:14:48;;;;;;;1.90;1.30;;;;;24.30;100998.00;;;;10471081;28;20248;-77
2021/07/11 17:19:50;;;;;;;2.40;1.80;;;;;24.20;100989.00;;;;10491657;28;20667;-77
2021/07/11 17:24:53;;;;;;;1.70;1.60;;;;;24.10;100990.00;;;;10496107;28;20275;-77
2021/07/11 17:29:55;;;;;;;1.90;1.80;;;;;24.00;100994.00;;;;10479755;28;20189;-77
2021/07/11 17:34:57;;;;;;;1.52;1.42;;;;;23.80;100994.00;;;;10494347;28;20214;-77
2021/07/11 17:39:59;;;;;;;2.17;1.50;;;;;23.80;100995.00;;;;10477573;28;20202;-77
2021/07/11 17:45:03;;;;;;;1.60;1.40;;;;;24.20;100985.00;;;;10510662;28;20239;-77
2021/07/11 17:50:06;;;;;;;1.50;1.40;;;;;24.40;100985.00;;;;10533324;28;20398;-77
2021/07/11 17:55:09;;;;;;;1.48;1.38;;;;;24.40;100986.00;;;;10493290;28;20205;-77
2021/07/11 18:00:13;;;;;;;2.50;1.45;;;;;24.40;100984.00;;;;10494972;28;20209;-77
2021/07/11 18:05:16;;;;;;;1.80;1.70;;;;;24.10;100980.00;;;;10460016;28;20190;-77
2021/07/11 18:10:19;;;;;;;1.50;1.40;;;;;23.70;100988.00;;;;10491299;28;20185;-77
2021/07/11 18:15:21;;;;;;;1.88;1.65;;;;;23.40;100988.00;;;;10460601;28;20219;-77
2021/07/11 18:20:23;;;;;;;1.73;1.63;;;;;23.20;100985.00;;;;10491389;28;20210;-77
2021/07/11 18:25:25;;;;;;;1.92;1.40;;;;;22.90;100986.00;;;;10463425;28;20198;-77
2021/07/11 18:30:26;;;;;;;2.08;1.50;;;;;22.70;100983.00;;;;10476071;28;20714;-77
2021/07/11 18:35:28;;;;;;;3.63;1.50;;;;;22.50;100991.00;;;;10492405;28;20216;-77
2021/07/11 18:40:30;;;;;;;1.83;1.73;;;;;22.40;100990.00;;;;10476406;28;20214;-77
2021/07/11 18:45:33;;;;;;;4.45;3.38;;;;;22.60;100987.00;;;;10475844;28;20185;-77
2021/07/11 18:50:35;;;;;;;2.00;1.90;;;;;22.70;100992.00;;;;10476860;28;20190;-77
2021/07/11 18:55:37;;;;;;;1.70;1.60;;;;;22.30;100986.00;;;;10507272;28;20284;-77
2021/07/11 19:00:40;;;;;;;1.90;1.80;;;;;21.90;100977.00;;;;10533188;28;20201;-77
2021/07/11 19:05:43;;;;;;;2.13;1.75;;;;;21.50;100978.00;;;;10549457;28;20189;-77
2021/07/11 19:10:44;;;;;;;2.45;1.95;;;;;21.30;100976.00;;;;10531160;28;20587;-77
2021/07/11 19:15:47;;;;;;;2.78;2.22;;;;;21.00;100979.00;;;;10497783;28;20200;-76
2021/07/11 19:20:49;;;;;;;1.92;1.75;;;;;20.80;100962.00;;;;10513754;28;20610;-77
2021/07/11 19:25:50;;;;;;;2.47;2.20;;;;;20.60;100967.00;;;;10483696;28;20197;-77
2021/07/11 19:30:52;;;;;;;2.50;2.30;;;;;20.40;100970.00;;;;10471251;28;20186;-77
2021/07/11 19:35:55;;;;;;;2.13;1.92;;;;;20.10;100970.00;;;;10479303;28;20220;-77
2021/07/11 19:40:58;;;;;;;2.42;2.22;;;;;19.80;100977.00;;;;10471055;28;20267;-77
2021/07/11 19:46:01;;;;;;;7.20;4.50;;;;;19.60;100970.00;;;;10454841;28;20541;-77
2021/07/11 19:51:03;;;;;;;8.38;5.07;;;;;19.30;100975.00;;;;10484977;28;20204;-77
2021/07/11 19:56:05;;;;;;;4.97;2.58;;;;;19.10;100972.00;;;;10493199;28;20556;-76
2021/07/11 20:01:07;;;;;;;2.75;2.50;;;;;18.90;100979.00;;;;10501521;28;20227;-76
2021/07/11 20:06:10;;;;;;;4.03;2.75;;;;;18.70;100972.00;;;;10434641;28;20268;-77
2021/07/11 20:11:11;;;;;;;2.65;2.38;;;;;18.50;100995.00;;;;10483061;28;20186;-77
2021/07/11 20:16:13;;;;;;;3.90;2.35;;;;;18.40;100995.00;;;;10450071;28;20189;-77
2021/07/11 20:21:16;;;;;;;3.22;2.80;;;;;18.30;100994.00;;;;10432855;28;20300;-77
2021/07/11 20:26:21;;;;;;;3.05;2.35;;;;;18.20;101006.00;;;;10459345;28;20197;-76
2021/07/11 20:31:29;;;;;;;3.25;2.78;;;;;18.10;101005.00;;;;10465297;28;20217;-77
2021/07/11 20:36:33;;;;;;;6.45;3.50;;;;;18.00;100998.00;;;;10480525;28;20200;-76
2021/07/11 20:41:34;;;;;;;6.35;3.70;;;;;17.90;100987.00;;;;10480594;28;20550;-76
2021/07/11 20:46:37;;;;;;;9.40;5.65;;;;;17.80;100996.00;;;;10482415;28;20186;-77
2021/07/11 20:51:39;;;;;;;4.28;3.30;;;;;17.60;100983.00;;;;10463990;28;20194;-77
2021/07/11 20:56:42;;;;;;;4.78;2.63;;;;;17.40;100971.00;;;;10471164;28;20197;-77
2021/07/11 21:01:44;;;;;;;7.50;3.20;;;;;17.20;100972.00;;;;10488246;28;20210;-76
2021/07/11 21:06:57;;;;;;;5.07;3.65;;;;;17.10;100976.00;;;;10471294;28;20545;-76
2021/07/11 21:11:58;;;;;;;5.57;3.58;;;;;17.00;100974.00;;;;10496874;28;20189;-76
2021/07/11 21:17:02;;;;;;;4.18;3.78;;;;;16.90;100964.00;;;;10496031;28;20691;-76
2021/07/11 21:22:04;;;;;;;5.87;3.77;;;;;16.90;100962.00;;;;10487597;28;20214;-76
2021/07/11 21:27:07;;;;;;;8.18;6.20;;;;;16.90;100956.00;;;;10486857;28;20182;-76
2021/07/11 21:32:09;;;;;;;5.93;4.27;;;;;16.80;100960.00;;;;10470366;28;20201;-76
2021/07/11 21:37:10;;;;;;;4.22;3.78;;;;;16.80;100960.00;;;;10453710;28;20259;-77
2021/07/11 21:42:12;;;;;;;5.90;4.28;;;;;16.70;100954.00;;;;10469815;28;20741;-76
2021/07/11 21:47:15;;;;;;;5.80;3.72;;;;;16.70;100939.00;;;;10504290;28;20190;-77
2021/07/11 21:52:17;;;;;;;4.05;3.67;;;;;16.60;100935.00;;;;10471081;28;20197;-77
2021/07/11 21:57:18;;;;;;;4.30;3.90;;;;;16.60;100935.00;;;;10476437;28;20640;-76
2021/07/11 22:02:20;;;;;;;4.53;3.90;;;;;16.50;100930.00;;;;10487385;28;20206;-77
2021/07/11 22:07:22;;;;;;;5.20;4.70;;;;;16.40;100918.00;;;;10469782;28;20194;-77
2021/07/11 22:12:24;;;;;;;6.40;4.50;;;;;16.40;100913.00;;;;10469021;28;20200;-76
2021/07/11 22:17:26;;;;;;;8.27;4.80;;;;;16.40;100923.00;;;;10485236;28;20198;-76
2021/07/11 22:22:28;;;;;;;4.90;4.40;;;;;16.40;100911.00;;;;10489758;28;20209;-76
2021/07/11 22:27:30;;;;;;;6.33;4.53;;;;;16.40;100904.00;;;;10494459;28;20193;-77
2021/07/11 22:32:54;;;;;;;5.17;3.77;;;;;16.30;100896.00;;;;10511013;28;20204;-76
2021/07/11 22:37:56;;;;;;;4.37;3.97;;;;;16.20;100888.00;;;;10478341;28;20192;-76
2021/07/11 22:43:00;;;;;;;5.17;4.23;;;;;16.10;100876.00;;;;10526864;28;20643;-76
2021/07/11 22:48:03;;;;;;;6.50;4.03;;;;;16.00;100858.00;;;;10510231;28;20224;-76
2021/07/11 22:53:05;;;;;;;7.23;4.63;;;;;16.00;100857.00;;;;10519088;28;20671;-76
2021/07/11 22:58:06;;;;;;;8.30;4.50;;;;;15.90;100869.00;;;;10467638;28;20194;-76
2021/07/11 23:03:09;;;;;;;4.57;4.17;;;;;15.80;100867.00;;;;10478454;28;20258;-76
2021/07/11 23:08:11;;;;;;;4.27;3.87;;;;;15.70;100857.00;;;;10525097;28;20570;-76
2021/07/11 23:13:13;;;;;;;4.73;4.30;;;;;15.60;100868.00;;;;10474740;28;20652;-76
2021/07/11 23:18:16;;;;;;;5.70;4.97;;;;;15.50;100863.00;;;;10506887;28;20525;-76
2021/07/11 23:23:19;;;;;;;8.63;4.83;;;;;15.50;100861.00;;;;10523858;28;20213;-76
2021/07/11 23:28:21;;;;;;;7.87;5.37;;;;;15.40;100853.00;;;;10524388;28;20547;-77
2021/07/11 23:33:24;;;;;;;5.40;4.87;;;;;15.40;100852.00;;;;10523918;28;20205;-76
2021/07/11 23:38:26;;;;;;;5.53;4.93;;;;;15.40;100847.00;;;;10507165;28;20195;-76
2021/07/11 23:43:27;;;;;;;6.67;5.73;;;;;15.40;100847.00;;;;10489966;28;20571;-77
2021/07/11 23:48:29;;;;;;;6.80;5.60;;;;;15.40;100835.00;;;;10506368;28;20192;-76
2021/07/11 23:53:32;;;;;;;9.67;6.70;;;;;15.50;100828.00;;;;10495588;28;20223;-77
2021/07/11 23:58:33;;;;;;;9.90;5.70;;;;;15.40;100820.00;;;;10470100;28;20276;-76
